M I D A S
Marine Information and Data Acquisition System
Tripno 1616 of the Zeeleeuw from 2008-11-26 07:43:14 to 2008-11-26 14:49:38
Back to CruiseResearch ActivitiesStationsMapUnderway DataData graphs

EquipmentUnitsComment
TimeDGPSUTC
LatitudeDGPSDM.mWGS84
LongitudeDGPSDM.mWGS84
HeadingGyrodeg 
SOGDGPSknotsSpeed over ground
COGDGPSdegCourse over ground
DepthEcho soundermeters200 kHz
Missing or incorrect values are displayed as -999
Navigation data collected by the RV Zeeleeuw from 2008-11-26 07:02:40 to 2008-11-26 14:51:00
                                                                                    Next 1000 lines
Time Latitude Longitude Heading SOG COG Depth
2008-11-26 07:02:50 51°13.633 2°56.051 123.6 -999 31 7.2
2008-11-26 07:02:55 51°13.634 2°56.051 123.6 0.3 14 7.1
2008-11-26 07:03:00 51°13.634 2°56.051 123.3 -999 39 7.1
2008-11-26 07:03:05 51°13.634 2°56.051 123.3 0.2 190 7.1
2008-11-26 07:03:10 51°13.627 2°56.05 123.2 -999 34 5.3
2008-11-26 07:03:15 51°13.626 2°56.049 123 -999 110 7
2008-11-26 07:03:20 51°13.626 2°56.049 122.9 0.1 148 5.3
2008-11-26 07:03:25 51°13.626 2°56.05 122.9 0.1 148 7.1
2008-11-26 07:03:29 51°13.626 2°56.05 122.9 -999 145 7.1
2008-11-26 07:03:35 51°13.626 2°56.049 123.2 0.1 330 7.1
2008-11-26 07:03:40 51°13.63 2°56.05 123.1 0.1 184 7.1
2008-11-26 07:03:45 51°13.626 2°56.049 122.6 -999 136 7.2
2008-11-26 07:03:49 51°13.626 2°56.049 122.4 0.1 339 7.2
2008-11-26 07:03:55 51°13.626 2°56.049 122.3 -999 326 5.4
2008-11-26 07:04:00 51°13.626 2°56.049 122.3 -999 80 7.2
2008-11-26 07:04:05 51°13.626 2°56.049 122.2 0.1 331 5.4
2008-11-26 07:04:09 51°13.626 2°56.049 122 0.1 350 7.2
2008-11-26 07:04:15 51°13.626 2°56.049 121.9 -999 67 5.4
2008-11-26 07:04:20 51°13.625 2°56.049 121.7 -999 152 7.1
2008-11-26 07:04:25 51°13.626 2°56.049 121.5 -999 117 7
2008-11-26 07:04:29 51°13.626 2°56.049 121.4 -999 130 7.1
2008-11-26 07:04:35 51°13.625 2°56.049 121.4 0.1 107 7.1
2008-11-26 07:04:40 51°13.625 2°56.049 121.4 -999 122 7
2008-11-26 07:04:45 51°13.625 2°56.049 121.5 0.1 172 7.1
2008-11-26 07:04:50 51°13.625 2°56.049 121.8 0.1 115 5.3
2008-11-26 07:04:55 51°13.625 2°56.049 122 -999 181 7.2
2008-11-26 07:05:00 51°13.625 2°56.049 122.3 -999 239 5.4
2008-11-26 07:05:05 51°13.625 2°56.049 122.6 -999 313 7
2008-11-26 07:05:10 51°13.625 2°56.049 122.8 -999 102 7.2
2008-11-26 07:05:15 51°13.625 2°56.049 123.2 -999 127 7.2
2008-11-26 07:05:20 51°13.625 2°56.049 123.3 0.1 112 7.1
2008-11-26 07:05:25 51°13.625 2°56.049 123.3 -999 130 7.2
2008-11-26 07:05:30 51°13.625 2°56.049 123 -999 40 7.1
2008-11-26 07:05:35 51°13.625 2°56.049 122.6 -999 277 7.1
2008-11-26 07:05:40 51°13.625 2°56.048 122.4 -999 290 7.1
2008-11-26 07:05:45 51°13.625 2°56.049 122.4 -999 45 7.1
2008-11-26 07:05:49 51°13.625 2°56.049 122.4 0.1 114 7
2008-11-26 07:05:55 51°13.625 2°56.049 122.4 -999 54 7.1
2008-11-26 07:06:00 51°13.625 2°56.049 122.4 -999 157 7.1
2008-11-26 07:06:05 51°13.625 2°56.049 122.4 -999 158 7.1
2008-11-26 07:06:09 51°13.625 2°56.049 122.6 -999 153 5.4
2008-11-26 07:06:15 51°13.625 2°56.049 122.6 -999 166 7.2
2008-11-26 07:06:20 51°13.625 2°56.049 122.7 -999 78 5.4
2008-11-26 07:06:25 51°13.625 2°56.048 122.9 -999 265 7.2
2008-11-26 07:06:30 51°13.625 2°56.048 123.2 0.1 226 7.2
2008-11-26 07:06:35 51°13.625 2°56.049 123.5 0.1 115 7.2
2008-11-26 07:06:40 51°13.625 2°56.049 123.5 0.1 138 7.2
2008-11-26 07:06:45 51°13.625 2°56.049 123.4 0.1 125 5.4
2008-11-26 07:06:49 51°13.625 2°56.049 123.1 -999 318 7.1
2008-11-26 07:06:55 51°13.625 2°56.049 122.6 0.1 281 7.1
2008-11-26 07:07:00 51°13.625 2°56.049 122.6 0.1 307 7.1
2008-11-26 07:07:05 51°13.625 2°56.048 122.6 0.1 295 7.1
2008-11-26 07:07:09 51°13.625 2°56.049 122.6 0.1 34 7.1
2008-11-26 07:07:15 51°13.625 2°56.049 122.6 -999 50 5.3
2008-11-26 07:07:20 51°13.625 2°56.049 122.6 -999 53 7.2
2008-11-26 07:07:25 51°13.625 2°56.049 122.5 -999 17 7.1
2008-11-26 07:07:30 51°13.625 2°56.049 122.5 -999 67 7.2
2008-11-26 07:07:35 51°13.625 2°56.049 122.6 -999 11 7.2
2008-11-26 07:07:40 51°13.625 2°56.049 122.6 -999 358 7.2
2008-11-26 07:07:45 51°13.625 2°56.049 122.4 -999 152 7.2
2008-11-26 07:07:50 51°13.625 2°56.049 122.3 -999 139 7.2
2008-11-26 07:07:55 51°13.625 2°56.049 122.5 0.1 130 7.3
2008-11-26 07:08:00 51°13.624 2°56.049 122.9 0.1 175 7.2
2008-11-26 07:08:05 51°13.624 2°56.049 123.3 -999 226 7.1
2008-11-26 07:08:09 51°13.624 2°56.049 123.6 -999 338 5.4
2008-11-26 07:08:15 51°13.624 2°56.049 123.8 -999 192 7.1
2008-11-26 07:08:20 51°13.624 2°56.049 123.3 -999 231 7.1
2008-11-26 07:08:25 51°13.624 2°56.049 123 0.1 307 7.1
2008-11-26 07:08:29 51°13.624 2°56.049 122.5 0.1 319 7.1
2008-11-26 07:08:35 51°13.624 2°56.048 122 0.1 337 7.1
2008-11-26 07:08:40 51°13.624 2°56.048 121.5 0.1 296 7.1
2008-11-26 07:08:45 51°13.624 2°56.049 121 -999 24 5.3
2008-11-26 07:08:49 51°13.624 2°56.049 120.4 0.1 185 7.2
2008-11-26 07:08:55 51°13.624 2°56.049 120.4 0.1 151 7.2
2008-11-26 07:09:00 51°13.623 2°56.049 120.8 0.1 146 7.2
2008-11-26 07:09:05 51°13.623 2°56.049 121.4 0.1 166 7.2
2008-11-26 07:09:09 51°13.623 2°56.049 122.3 0.1 3 7.2
2008-11-26 07:09:15 51°13.623 2°56.049 123 0.1 330 7.2
2008-11-26 07:09:20 51°13.623 2°56.049 123.1 0.1 297 7.2
2008-11-26 07:09:25 51°13.623 2°56.049 122.8 0.1 340 7.2
2008-11-26 07:09:30 51°13.623 2°56.049 123.2 0.1 276 -999
2008-11-26 07:09:35 51°13.623 2°56.049 123.3 0.1 262 7.2
2008-11-26 07:09:40 51°13.624 2°56.049 123.3 0.1 335 7.2
2008-11-26 07:09:45 51°13.623 2°56.049 123.4 -999 184 7.3
2008-11-26 07:09:50 51°13.623 2°56.049 123.5 -999 273 7.2
2008-11-26 07:09:55 51°13.623 2°56.049 123.5 0.1 273 5.4
2008-11-26 07:10:00 51°13.623 2°56.049 123.1 0.1 228 7.2
2008-11-26 07:10:05 51°13.623 2°56.049 122.6 0.1 229 -999
2008-11-26 07:10:10 51°13.624 2°56.049 122.3 0.1 340 7.2
2008-11-26 07:10:15 51°13.623 2°56.049 121.9 0.1 13 7.2
2008-11-26 07:10:20 51°13.623 2°56.049 121.5 -999 211 7.2
2008-11-26 07:10:25 51°13.623 2°56.049 120.9 0.1 87 7.2
2008-11-26 07:10:29 51°13.623 2°56.049 120.4 -999 104 7.2
2008-11-26 07:10:35 51°13.623 2°56.049 120.4 -999 344 7.2
2008-11-26 07:10:40 51°13.623 2°56.049 120.4 -999 57 5.4
2008-11-26 07:10:45 51°13.623 2°56.049 120.6 0.1 149 7.2
2008-11-26 07:10:49 51°13.623 2°56.049 121 0.1 137 7.2
2008-11-26 07:10:55 51°13.623 2°56.049 121.6 0.1 137 7.2
2008-11-26 07:11:00 51°13.623 2°56.049 122.2 0.1 131 7.2
2008-11-26 07:11:05 51°13.623 2°56.049 122.8 0.1 103 7.2
2008-11-26 07:11:09 51°13.623 2°56.049 123.2 -999 138 7.2
2008-11-26 07:11:15 51°13.623 2°56.049 123.3 -999 161 -999
2008-11-26 07:11:20 51°13.623 2°56.049 122.9 0.1 312 7.2
2008-11-26 07:11:25 51°13.623 2°56.049 122.8 0.1 295 7.2
2008-11-26 07:11:29 51°13.623 2°56.049 122.8 -999 120 7.2
2008-11-26 07:11:35 51°13.623 2°56.049 122.8 -999 51 7.2
2008-11-26 07:11:40 51°13.623 2°56.049 123 -999 159 7.2
2008-11-26 07:11:45 51°13.623 2°56.049 123 -999 323 7.2
2008-11-26 07:11:50 51°13.623 2°56.048 123 -999 311 7.2
2008-11-26 07:11:55 51°13.623 2°56.048 123.1 -999 291 5.4
2008-11-26 07:12:00 51°13.623 2°56.048 123.2 -999 261 7.2
2008-11-26 07:12:05 51°13.623 2°56.048 123.3 0.1 189 7.3
2008-11-26 07:12:10 51°13.623 2°56.048 123.5 0.1 232 7.2
2008-11-26 07:12:15 51°13.623 2°56.048 123.7 -999 335 7.2
2008-11-26 07:12:20 51°13.623 2°56.049 123.9 0.1 152 7.3
2008-11-26 07:12:25 51°13.623 2°56.049 123.7 0.1 135 7.3
2008-11-26 07:12:29 51°13.623 2°56.049 123.7 0.1 138 5.4
2008-11-26 07:12:35 51°13.623 2°56.049 123.5 0.1 129 7.2
2008-11-26 07:12:40 51°13.623 2°56.048 123.3 0.1 144 7.3
2008-11-26 07:12:45 51°13.623 2°56.048 123.1 -999 132 7.2
2008-11-26 07:12:49 51°13.623 2°56.048 122.8 -999 257 7.2
2008-11-26 07:12:55 51°13.623 2°56.048 122.6 -999 266 7.2
2008-11-26 07:13:00 51°13.623 2°56.048 122.4 -999 315 7.3
2008-11-26 07:13:05 51°13.623 2°56.048 122.2 -999 197 -999
2008-11-26 07:13:09 51°13.623 2°56.048 122.2 -999 161 7.3
2008-11-26 07:13:15 51°13.623 2°56.048 122.3 0.1 177 7.3
2008-11-26 07:13:20 51°13.623 2°56.048 122.6 0.1 351 7.3
2008-11-26 07:13:25 51°13.623 2°56.048 122.9 0.1 296 7.2
2008-11-26 07:13:29 51°13.623 2°56.048 122.9 0.1 23 5.4
2008-11-26 07:13:35 51°13.623 2°56.048 122.8 0.1 311 7.2
2008-11-26 07:13:40 51°13.623 2°56.048 122.6 -999 314 7.3
2008-11-26 07:13:45 51°13.623 2°56.048 122.4 -999 270 7.2
2008-11-26 07:13:50 51°13.624 2°56.048 122.2 0.1 357 7.3
2008-11-26 07:13:55 51°13.623 2°56.048 122.1 -999 324 7.2
2008-11-26 07:14:00 51°13.624 2°56.048 122 0.1 351 7.2
2008-11-26 07:14:05 51°13.624 2°56.048 122 0.1 338 7.3
2008-11-26 07:14:09 51°13.624 2°56.048 121.9 -999 288 7.2
2008-11-26 07:14:14 51°13.624 2°56.048 121.8 0.1 187 5.4
2008-11-26 07:14:19 51°13.624 2°56.048 121.6 0.1 171 7.2
2008-11-26 07:14:24 51°13.624 2°56.048 121.5 -999 118 5.4
2008-11-26 07:14:29 51°13.625 2°56.048 121.5 0.1 338 7.2
2008-11-26 07:14:34 51°13.624 2°56.048 121.3 0.1 329 7.2
2008-11-26 07:14:39 51°13.624 2°56.048 121.3 -999 203 7.2
2008-11-26 07:14:44 51°13.624 2°56.048 121.3 -999 109 7.2
2008-11-26 07:14:49 51°13.624 2°56.048 121.4 -999 93 7.2
2008-11-26 07:14:54 51°13.624 2°56.048 121.5 -999 190 7.2
2008-11-26 07:14:59 51°13.624 2°56.048 121.7 -999 149 7.2
2008-11-26 07:15:04 51°13.624 2°56.048 121.8 -999 173 7.2
2008-11-26 07:15:08 51°13.624 2°56.048 122 -999 185 5.4
2008-11-26 07:15:13 51°13.624 2°56.048 122.2 -999 118 7.2
2008-11-26 07:15:18 51°13.624 2°56.048 122.5 -999 151 5.4
2008-11-26 07:15:23 51°13.624 2°56.048 122.6 -999 160 7.2
2008-11-26 07:15:28 51°13.623 2°56.047 122.7 -999 135 7.2
2008-11-26 07:15:33 51°13.624 2°56.047 122.7 -999 164 7.3
2008-11-26 07:15:38 51°13.625 2°56.048 122.8 -999 3 7.2
2008-11-26 07:15:43 51°13.625 2°56.048 122.8 -999 233 5.4
2008-11-26 07:15:48 51°13.625 2°56.048 122.9 -999 237 7.2
2008-11-26 07:15:53 51°13.625 2°56.048 122.9 -999 286 7.3
2008-11-26 07:15:58 51°13.625 2°56.048 122.9 -999 278 7.3
2008-11-26 07:16:03 51°13.625 2°56.048 122.9 -999 248 7.3
2008-11-26 07:16:08 51°13.626 2°56.048 122.9 -999 332 5.4
2008-11-26 07:16:13 51°13.626 2°56.048 122.9 -999 264 7.3
2008-11-26 07:16:18 51°13.625 2°56.048 122.8 -999 284 7.3
2008-11-26 07:16:23 51°13.625 2°56.048 122.6 -999 232 7.2
2008-11-26 07:16:28 51°13.626 2°56.048 122.3 -999 215 7.3
2008-11-26 07:16:33 51°13.626 2°56.048 122 -999 205 7.3
2008-11-26 07:16:38 51°13.626 2°56.048 121.9 -999 179 7.3
2008-11-26 07:16:43 51°13.626 2°56.048 121.8 -999 164 7.3
2008-11-26 07:16:48 51°13.626 2°56.048 121.8 -999 165 7.3
2008-11-26 07:16:53 51°13.626 2°56.048 122.1 -999 72 5.4
2008-11-26 07:16:58 51°13.626 2°56.048 122.5 -999 320 7.3
2008-11-26 07:17:03 51°13.626 2°56.048 122.7 -999 352 7.2
2008-11-26 07:17:08 51°13.626 2°56.048 122.8 -999 302 7.2
2008-11-26 07:17:13 51°13.626 2°56.048 122.8 0.1 313 7.3
2008-11-26 07:17:18 51°13.626 2°56.048 122.6 0.1 312 5.4
2008-11-26 07:17:23 51°13.626 2°56.048 122.4 -999 326 7.2
2008-11-26 07:17:28 51°13.626 2°56.048 121.9 -999 296 5.4
2008-11-26 07:17:33 51°13.626 2°56.048 121.6 -999 297 7.2
2008-11-26 07:17:38 51°13.626 2°56.048 121.4 -999 235 7.2
2008-11-26 07:17:43 51°13.626 2°56.048 121.3 -999 157 7.2
2008-11-26 07:17:48 51°13.626 2°56.048 121.2 -999 180 7.2
2008-11-26 07:17:53 51°13.626 2°56.048 121.2 -999 181 7.2
2008-11-26 07:17:58 51°13.626 2°56.048 121.4 -999 209 7.3
2008-11-26 07:18:03 51°13.626 2°56.048 121.5 -999 197 7.3
2008-11-26 07:18:08 51°13.626 2°56.048 121.7 -999 198 7.3
2008-11-26 07:18:13 51°13.626 2°56.048 121.8 -999 211 7.2
2008-11-26 07:18:18 51°13.626 2°56.048 121.8 -999 227 7.2
2008-11-26 07:18:23 51°13.626 2°56.048 121.8 -999 244 5.4
2008-11-26 07:18:28 51°13.626 2°56.048 121.9 -999 17 7.2
2008-11-26 07:18:33 51°13.626 2°56.048 121.9 -999 198 7.2
2008-11-26 07:18:38 51°13.625 2°56.048 122 -999 102 7.2
2008-11-26 07:18:43 51°13.625 2°56.048 122.1 -999 174 7.2
2008-11-26 07:18:48 51°13.625 2°56.048 122.2 -999 142 7.2
2008-11-26 07:18:53 51°13.625 2°56.048 122.5 -999 230 7.2
2008-11-26 07:18:58 51°13.626 2°56.049 122.6 -999 317 5.4
2008-11-26 07:19:03 51°13.626 2°56.049 122.6 -999 326 7.2
2008-11-26 07:19:09 51°13.626 2°56.049 122.6 0.1 335 7.3
2008-11-26 07:19:13 51°13.625 2°56.049 122.6 -999 329 7.2
2008-11-26 07:19:18 51°13.625 2°56.049 122.5 -999 317 7.2
2008-11-26 07:19:23 51°13.625 2°56.049 122.3 -999 336 7.2
2008-11-26 07:19:29 51°13.625 2°56.049 122 -999 276 7.2
2008-11-26 07:19:33 51°13.625 2°56.049 121.8 -999 286 7.2
2008-11-26 07:19:38 51°13.625 2°56.049 121.7 -999 195 7.2
2008-11-26 07:19:43 51°13.625 2°56.049 121.6 -999 136 7.3
2008-11-26 07:19:48 51°13.625 2°56.049 121.6 -999 202 7.3
2008-11-26 07:19:53 51°13.625 2°56.049 121.7 -999 115 7.2
2008-11-26 07:19:59 51°13.624 2°56.049 121.8 -999 200 7.3
2008-11-26 07:20:04 51°13.624 2°56.049 122 -999 21 5.4
2008-11-26 07:20:09 51°13.624 2°56.049 122 -999 208 7.2
2008-11-26 07:20:13 51°13.624 2°56.049 122.2 -999 206 7.3
2008-11-26 07:20:19 51°13.624 2°56.049 122.3 -999 346 7.2
2008-11-26 07:20:24 51°13.624 2°56.049 122.3 -999 198 7.2
2008-11-26 07:20:29 51°13.624 2°56.049 122.3 -999 26 5.4
2008-11-26 07:20:33 51°13.624 2°56.049 122.3 -999 230 7.2
2008-11-26 07:20:38 51°13.624 2°56.049 122.5 -999 346 -999
2008-11-26 07:20:44 51°13.624 2°56.048 122.6 -999 243 7.2
2008-11-26 07:20:49 51°13.624 2°56.048 122.6 -999 340 7.2
2008-11-26 07:20:53 51°13.624 2°56.048 122.6 -999 245 7.2
2008-11-26 07:20:58 51°13.624 2°56.048 122.5 -999 337 7.2
2008-11-26 07:21:04 51°13.624 2°56.048 122.5 -999 257 -999
2008-11-26 07:21:09 51°13.623 2°56.047 122.4 -999 346 7.2
2008-11-26 07:21:13 51°13.622 2°56.047 122.3 -999 310 7.2
2008-11-26 07:21:19 51°13.622 2°56.047 122.2 -999 326 7.2
2008-11-26 07:21:24 51°13.623 2°56.047 122.2 -999 293 7.2
2008-11-26 07:21:29 51°13.623 2°56.048 122.1 -999 265 5.4
2008-11-26 07:21:33 51°13.624 2°56.048 122 -999 282 7.3
2008-11-26 07:21:39 51°13.624 2°56.048 121.9 -999 202 7.2
2008-11-26 07:21:44 51°13.625 2°56.048 121.9 -999 38 7.3
2008-11-26 07:21:49 51°13.625 2°56.048 121.9 -999 8 7.2
2008-11-26 07:21:54 51°13.625 2°56.048 121.9 -999 22 7.2
2008-11-26 07:21:59 51°13.625 2°56.048 121.9 -999 90 7.2
2008-11-26 07:22:04 51°13.624 2°56.048 121.9 -999 88 5.4
2008-11-26 07:22:09 51°13.624 2°56.048 121.9 -999 171 7.2
2008-11-26 07:22:14 51°13.624 2°56.048 121.9 -999 163 7.2
2008-11-26 07:22:19 51°13.623 2°56.048 121.9 -999 186 7.2
2008-11-26 07:22:24 51°13.623 2°56.048 122 -999 79 7.3
2008-11-26 07:22:29 51°13.623 2°56.048 122 -999 160 7.2
2008-11-26 07:22:33 51°13.623 2°56.048 122.1 -999 287 7.2
2008-11-26 07:22:39 51°13.623 2°56.048 122.1 -999 257 5.4
2008-11-26 07:22:44 51°13.623 2°56.048 122.1 -999 306 7.2
2008-11-26 07:22:49 51°13.624 2°56.048 122.1 -999 17 7.2
2008-11-26 07:22:54 51°13.623 2°56.047 122.1 -999 251 7.2
2008-11-26 07:22:59 51°13.62 2°56.046 122.1 -999 5 7.2
2008-11-26 07:23:04 51°13.62 2°56.046 122 -999 248 7.3
2008-11-26 07:23:09 51°13.621 2°56.046 121.9 -999 333 7.2
2008-11-26 07:23:14 51°13.622 2°56.046 121.8 0.1 249 7.2
2008-11-26 07:23:19 51°13.622 2°56.046 121.8 -999 306 7.2
2008-11-26 07:23:24 51°13.623 2°56.046 121.7 -999 247 5.4
2008-11-26 07:23:29 51°13.623 2°56.046 121.5 -999 332 7.2
2008-11-26 07:23:34 51°13.623 2°56.046 121.4 -999 228 7.3
2008-11-26 07:23:39 51°13.623 2°56.047 121.3 -999 209 7.2
2008-11-26 07:23:44 51°13.623 2°56.047 121.3 -999 198 -999
2008-11-26 07:23:49 51°13.623 2°56.047 121.3 -999 160 7.3
2008-11-26 07:23:54 51°13.623 2°56.047 121.3 -999 179 7.3
2008-11-26 07:23:59 51°13.623 2°56.047 121.4 -999 174 7.3
2008-11-26 07:24:04 51°13.623 2°56.047 121.7 -999 151 7.3
2008-11-26 07:24:09 51°13.623 2°56.047 121.8 -999 163 5.4
2008-11-26 07:24:14 51°13.623 2°56.047 122.1 -999 147 7.3
2008-11-26 07:24:19 51°13.623 2°56.047 122.4 -999 182 7.3
2008-11-26 07:24:24 51°13.623 2°56.047 122.6 -999 70 7.3
2008-11-26 07:24:29 51°13.623 2°56.047 122.8 -999 277 7.3
2008-11-26 07:24:34 51°13.623 2°56.047 122.9 -999 338 7.3
2008-11-26 07:24:39 51°13.623 2°56.047 123 -999 276 7.3
2008-11-26 07:24:44 51°13.623 2°56.047 123 -999 323 -999
2008-11-26 07:24:49 51°13.624 2°56.047 123 -999 304 7.3
2008-11-26 07:24:54 51°13.624 2°56.047 123 -999 335 7.3
2008-11-26 07:24:59 51°13.624 2°56.047 122.8 -999 324 7.3
2008-11-26 07:25:04 51°13.624 2°56.047 122.6 -999 333 7.3
2008-11-26 07:25:09 51°13.624 2°56.047 122.6 -999 303 7.4
2008-11-26 07:25:14 51°13.624 2°56.047 122.5 -999 312 7.3
2008-11-26 07:25:19 51°13.624 2°56.047 122.3 -999 298 5.4
2008-11-26 07:25:24 51°13.624 2°56.047 122.1 -999 321 7.3
2008-11-26 07:25:29 51°13.624 2°56.047 121.9 -999 337 7.3
2008-11-26 07:25:34 51°13.625 2°56.047 121.8 -999 315 7.2
2008-11-26 07:25:39 51°13.625 2°56.047 121.7 -999 272 7.3
2008-11-26 07:25:44 51°13.625 2°56.047 121.6 -999 72 7.3
2008-11-26 07:25:49 51°13.625 2°56.047 121.5 -999 114 7.3
2008-11-26 07:25:54 51°13.625 2°56.047 121.5 -999 132 5.4
2008-11-26 07:25:59 51°13.625 2°56.047 121.5 -999 153 7.3
2008-11-26 07:26:04 51°13.623 2°56.047 121.7 -999 179 7.3
2008-11-26 07:26:09 51°13.623 2°56.046 121.9 -999 180 7.3
2008-11-26 07:26:14 51°13.621 2°56.046 122.1 -999 195 7.3
2008-11-26 07:26:19 51°13.621 2°56.045 122.3 -999 207 7.3
2008-11-26 07:26:24 51°13.621 2°56.046 122.4 -999 177 7.3
2008-11-26 07:26:29 51°13.622 2°56.046 122.4 -999 81 7.2
2008-11-26 07:26:34 51°13.623 2°56.046 122.4 -999 168 7.2
2008-11-26 07:26:39 51°13.623 2°56.046 122.2 -999 90 7.3
2008-11-26 07:26:44 51°13.623 2°56.046 122.1 -999 232 7.3
2008-11-26 07:26:49 51°13.622 2°56.046 122 -999 276 5.4
2008-11-26 07:26:54 51°13.622 2°56.046 122 -999 268 7.3
2008-11-26 07:27:00 51°13.622 2°56.046 122.1 -999 258 5.4
2008-11-26 07:27:04 51°13.622 2°56.046 122.3 -999 234 7.3
2008-11-26 07:27:09 51°13.622 2°56.046 122.5 -999 203 7.3
2008-11-26 07:27:14 51°13.623 2°56.046 122.5 -999 59 7.3
2008-11-26 07:27:20 51°13.623 2°56.046 122.6 -999 164 7.3
2008-11-26 07:27:24 51°13.623 2°56.047 122.6 -999 149 7.3
2008-11-26 07:27:29 51°13.623 2°56.047 122.5 -999 146 7.3
2008-11-26 07:27:34 51°13.623 2°56.047 122.4 -999 141 7.3
2008-11-26 07:27:39 51°13.623 2°56.047 122.3 -999 191 7.3
2008-11-26 07:27:45 51°13.623 2°56.047 122.3 -999 189 5.4
2008-11-26 07:27:49 51°13.623 2°56.047 122.5 -999 210 7.3
2008-11-26 07:27:54 51°13.623 2°56.047 122.6 -999 248 5.5
2008-11-26 07:28:00 51°13.624 2°56.047 122.8 -999 226 7.4
2008-11-26 07:28:05 51°13.624 2°56.047 122.9 -999 295 7.3
2008-11-26 07:28:09 51°13.624 2°56.047 123 -999 214 7.3
2008-11-26 07:28:14 51°13.624 2°56.047 123 -999 34 7.3
2008-11-26 07:28:20 51°13.624 2°56.047 123 -999 173 7.3
2008-11-26 07:28:24 51°13.624 2°56.047 123 -999 67 7.4
2008-11-26 07:28:29 51°13.624 2°56.047 123 -999 190 7.3
2008-11-26 07:28:34 51°13.624 2°56.047 123 -999 154 7.4
2008-11-26 07:28:40 51°13.622 2°56.046 123.3 -999 215 7.4
2008-11-26 07:28:45 51°13.622 2°56.046 123.4 -999 13 7.5
2008-11-26 07:28:49 51°13.623 2°56.046 123.6 -999 313 7.4
2008-11-26 07:28:55 51°13.623 2°56.046 123.6 -999 177 5.5
2008-11-26 07:29:00 51°13.622 2°56.046 123.6 -999 175 7.3
2008-11-26 07:29:05 51°13.621 2°56.046 123.6 -999 43 7.3
2008-11-26 07:29:09 51°13.621 2°56.046 123.6 -999 216 7.4
2008-11-26 07:29:14 51°13.622 2°56.046 123.6 -999 338 7.4
2008-11-26 07:29:20 51°13.623 2°56.046 123.5 -999 233 7.4
2008-11-26 07:29:25 51°13.623 2°56.047 123.5 -999 258 7.3
2008-11-26 07:29:29 51°13.624 2°56.047 123.5 -999 214 7.3
2008-11-26 07:29:34 51°13.624 2°56.047 123.5 -999 166 7.4
2008-11-26 07:29:40 51°13.624 2°56.047 123.6 -999 152 7.4
2008-11-26 07:29:45 51°13.625 2°56.047 123.7 -999 29 7.3
2008-11-26 07:29:49 51°13.625 2°56.047 123.6 -999 260 7.4
2008-11-26 07:29:54 51°13.625 2°56.047 123.5 -999 308 7.3
2008-11-26 07:30:00 51°13.625 2°56.048 123.4 -999 -999 5.5
2008-11-26 07:30:05 51°13.625 2°56.048 123.4 -999 53 7.4
2008-11-26 07:30:09 51°13.625 2°56.048 123.5 -999 58 7.4
2008-11-26 07:30:14 51°13.625 2°56.048 123.5 -999 248 7.4
2008-11-26 07:30:20 51°13.625 2°56.048 123.3 -999 234 7.5
2008-11-26 07:30:24 51°13.624 2°56.048 123.3 -999 348 7.4
2008-11-26 07:30:30 51°13.621 2°56.047 123.3 -999 153 7.4
2008-11-26 07:30:35 51°13.62 2°56.046 123.3 -999 155 7.5
2008-11-26 07:30:40 51°13.622 2°56.047 123.3 -999 217 7.4
2008-11-26 07:30:44 51°13.623 2°56.048 123.3 -999 330 5.5
2008-11-26 07:30:49 51°13.625 2°56.048 123.3 -999 318 7.4
2008-11-26 07:30:55 51°13.626 2°56.049 123.3 -999 272 7.4
2008-11-26 07:31:00 51°13.626 2°56.049 123.3 -999 236 7.4
2008-11-26 07:31:05 51°13.626 2°56.049 123.3 -999 268 7.4
2008-11-26 07:31:09 51°13.626 2°56.049 123.3 -999 280 5.5
2008-11-26 07:31:15 51°13.626 2°56.049 123.2 -999 289 7.4
2008-11-26 07:31:20 51°13.625 2°56.048 123.2 -999 283 7.4
2008-11-26 07:31:25 51°13.625 2°56.048 123.2 -999 288 7.4
2008-11-26 07:31:29 51°13.625 2°56.048 123 -999 295 7.4
2008-11-26 07:31:35 51°13.625 2°56.048 123 -999 316 7.4
2008-11-26 07:31:40 51°13.625 2°56.048 122.8 -999 297 7.5
2008-11-26 07:31:45 51°13.625 2°56.048 122.6 -999 318 7.5
2008-11-26 07:31:49 51°13.625 2°56.048 122.3 0.1 267 7.4
2008-11-26 07:31:54 51°13.625 2°56.048 122.1 0.1 326 7.5
2008-11-26 07:32:00 51°13.625 2°56.048 122 -999 274 7.5
2008-11-26 07:32:05 51°13.625 2°56.048 122 -999 281 7.5
2008-11-26 07:32:09 51°13.625 2°56.048 121.9 -999 294 7.4
2008-11-26 07:32:15 51°13.625 2°56.047 121.8 -999 173 7.4
2008-11-26 07:32:20 51°13.625 2°56.047 121.7 -999 292 7.4
2008-11-26 07:32:25 51°13.625 2°56.048 121.7 -999 250 7.4
2008-11-26 07:32:29 51°13.625 2°56.048 121.7 -999 82 5.5
2008-11-26 07:32:34 51°13.625 2°56.048 121.7 -999 124 7.4
2008-11-26 07:32:40 51°13.625 2°56.048 121.7 -999 114 5.5
2008-11-26 07:32:45 51°13.625 2°56.048 121.8 -999 172 7.5
2008-11-26 07:32:50 51°13.625 2°56.048 121.9 -999 136 7.5
2008-11-26 07:32:54 51°13.625 2°56.048 122.1 -999 178 7.6
2008-11-26 07:33:00 51°13.625 2°56.048 122.5 -999 191 7.5
2008-11-26 07:33:05 51°13.624 2°56.048 122.6 -999 249 7.6
2008-11-26 07:33:10 51°13.624 2°56.048 122.8 -999 255 7.6
2008-11-26 07:33:15 51°13.624 2°56.048 122.8 -999 253 7.4
2008-11-26 07:33:20 51°13.624 2°56.048 122.8 -999 339 5.5
2008-11-26 07:33:25 51°13.624 2°56.048 122.8 -999 244 7.4
2008-11-26 07:33:29 51°13.624 2°56.048 122.7 -999 255 7.4
2008-11-26 07:33:34 51°13.624 2°56.048 122.6 -999 218 7.6
2008-11-26 07:33:40 51°13.624 2°56.048 122.6 -999 168 7.4
2008-11-26 07:33:45 51°13.624 2°56.048 122.6 -999 129 7.4
2008-11-26 07:33:49 51°13.624 2°56.048 122.6 -999 193 7.5
2008-11-26 07:33:55 51°13.625 2°56.048 122.6 -999 134 7.5
2008-11-26 07:34:00 51°13.626 2°56.048 122.7 -999 220 7.5
2008-11-26 07:34:05 51°13.626 2°56.049 122.8 -999 297 7.5
2008-11-26 07:34:09 51°13.626 2°56.049 122.8 -999 241 5.6
2008-11-26 07:34:14 51°13.626 2°56.049 122.8 -999 306 7.5
2008-11-26 07:34:20 51°13.626 2°56.049 122.8 -999 258 7.5
2008-11-26 07:34:25 51°13.626 2°56.048 122.7 -999 166 7.5
2008-11-26 07:34:29 51°13.625 2°56.048 122.6 -999 169 7.5
2008-11-26 07:34:34 51°13.625 2°56.048 122.6 0.1 156 7.4
2008-11-26 07:34:40 51°13.625 2°56.048 122.6 0.1 161 7.4
2008-11-26 07:34:45 51°13.624 2°56.048 122.8 0.1 155 5.5
2008-11-26 07:34:49 51°13.624 2°56.048 123.2 -999 235 7.4
2008-11-26 07:34:54 51°13.624 2°56.048 123.7 0.1 335 7.4
2008-11-26 07:35:00 51°13.623 2°56.047 124 -999 264 7.5
2008-11-26 07:35:05 51°13.622 2°56.047 123.7 -999 210 7.5
2008-11-26 07:35:10 51°13.621 2°56.047 123.6 -999 195 5.5
2008-11-26 07:35:15 51°13.621 2°56.047 123.3 -999 197 7.4
2008-11-26 07:35:20 51°13.622 2°56.047 123.3 -999 353 7.4
2008-11-26 07:35:24 51°13.622 2°56.047 123.3 -999 322 7.4
2008-11-26 07:35:29 51°13.623 2°56.047 123.3 -999 348 7.4
2008-11-26 07:35:35 51°13.623 2°56.047 123.3 -999 340 7.5
2008-11-26 07:35:40 51°13.623 2°56.047 123.2 -999 308 7.5
2008-11-26 07:35:45 51°13.623 2°56.047 123 -999 357 7.5
2008-11-26 07:35:49 51°13.623 2°56.047 122.8 -999 187 5.5
2008-11-26 07:35:55 51°13.623 2°56.047 122.6 -999 196 7.4
2008-11-26 07:36:00 51°13.623 2°56.047 122.6 -999 159 7.5
2008-11-26 07:36:05 51°13.623 2°56.047 122.6 -999 161 7.5
2008-11-26 07:36:09 51°13.624 2°56.047 122.8 -999 131 7.4
2008-11-26 07:36:14 51°13.624 2°56.047 123 -999 197 7.5
2008-11-26 07:36:20 51°13.624 2°56.047 123.3 -999 11 7.4
2008-11-26 07:36:25 51°13.624 2°56.047 123.3 -999 306 5.5
2008-11-26 07:36:29 51°13.624 2°56.047 123.3 -999 338 7.4
2008-11-26 07:36:34 51°13.624 2°56.047 123.3 -999 291 7.4
2008-11-26 07:36:40 51°13.624 2°56.047 123.3 -999 342 7.4
2008-11-26 07:36:45 51°13.624 2°56.047 123.1 -999 215 7.4
2008-11-26 07:36:49 51°13.624 2°56.047 122.9 -999 146 5.5
2008-11-26 07:36:54 51°13.624 2°56.047 122.8 0.1 175 7.4
2008-11-26 07:37:00 51°13.624 2°56.047 122.8 -999 139 7.4
2008-11-26 07:37:04 51°13.624 2°56.047 122.8 0.1 181 7.4
2008-11-26 07:37:09 51°13.624 2°56.046 123.1 -999 15 7.4
2008-11-26 07:37:14 51°13.624 2°56.046 123.3 -999 309 7.4
2008-11-26 07:37:20 51°13.624 2°56.046 123.6 -999 344 7.4
2008-11-26 07:37:24 51°13.624 2°56.046 123.6 -999 205 5.5
2008-11-26 07:37:30 51°13.624 2°56.046 123.6 -999 159 7.4
2008-11-26 07:37:35 51°13.624 2°56.046 123.6 -999 199 7.4
2008-11-26 07:37:40 51°13.624 2°56.046 123.6 -999 317 7.4
2008-11-26 07:37:44 51°13.624 2°56.046 123.6 -999 283 7.4
2008-11-26 07:37:49 51°13.623 2°56.046 123.6 -999 3 5.5
2008-11-26 07:37:54 51°13.624 2°56.046 123.6 -999 204 7.4
2008-11-26 07:38:00 51°13.624 2°56.046 123.6 -999 136 -999
2008-11-26 07:38:05 51°13.624 2°56.046 123.6 -999 83 7.4
2008-11-26 07:38:09 51°13.624 2°56.046 123.6 -999 22 7.4
2008-11-26 07:38:15 51°13.624 2°56.046 123.7 -999 11 7.4
2008-11-26 07:38:20 51°13.624 2°56.046 123.7 -999 284 7.5
2008-11-26 07:38:25 51°13.624 2°56.046 123.7 -999 239 7.5
2008-11-26 07:38:29 51°13.624 2°56.046 123.8 -999 322 7.5
2008-11-26 07:38:34 51°13.624 2°56.046 123.8 -999 333 5.5
2008-11-26 07:38:40 51°13.624 2°56.046 123.8 -999 324 7.5
2008-11-26 07:38:45 51°13.624 2°56.046 123.6 -999 325 7.4
2008-11-26 07:38:49 51°13.624 2°56.046 123.4 -999 258 7.4
2008-11-26 07:38:54 51°13.625 2°56.046 123.3 -999 40 7.4
2008-11-26 07:39:00 51°13.624 2°56.046 123.3 -999 194 7.4
2008-11-26 07:39:05 51°13.624 2°56.046 123.3 -999 163 7.4
2008-11-26 07:39:09 51°13.624 2°56.046 123.3 -999 158 5.5
2008-11-26 07:39:14 51°13.624 2°56.047 123.3 -999 209 7.4
2008-11-26 07:39:20 51°13.625 2°56.047 123.6 -999 344 -999
2008-11-26 07:39:25 51°13.625 2°56.047 123.8 -999 296 7.4
2008-11-26 07:39:29 51°13.625 2°56.047 123.9 -999 23 7.4
2008-11-26 07:39:34 51°13.625 2°56.047 123.9 -999 252 7.4
2008-11-26 07:39:40 51°13.625 2°56.047 123.9 -999 347 7.4
2008-11-26 07:39:44 51°13.625 2°56.047 123.9 -999 209 5.5
2008-11-26 07:39:49 51°13.625 2°56.047 123.9 -999 88 7.4
2008-11-26 07:39:55 51°13.625 2°56.047 123.9 -999 94 7.4
2008-11-26 07:40:00 51°13.625 2°56.047 123.9 -999 53 7.4
2008-11-26 07:40:04 51°13.625 2°56.047 124 -999 35 7.4
2008-11-26 07:40:09 51°13.625 2°56.047 124 -999 216 5.5
2008-11-26 07:40:14 51°13.625 2°56.047 124 -999 230 7.4
2008-11-26 07:40:20 51°13.625 2°56.047 124 -999 25 7.4
2008-11-26 07:40:25 51°13.625 2°56.047 124 -999 217 7.4
2008-11-26 07:40:29 51°13.625 2°56.047 124 -999 282 7.4
2008-11-26 07:40:34 51°13.625 2°56.047 124 -999 319 7.4
2008-11-26 07:40:40 51°13.625 2°56.047 123.9 -999 297 7.4
2008-11-26 07:40:45 51°13.625 2°56.047 123.8 -999 246 5.5
2008-11-26 07:40:49 51°13.625 2°56.047 123.8 -999 247 7.4
2008-11-26 07:40:54 51°13.625 2°56.047 123.8 -999 250 7.4
2008-11-26 07:41:00 51°13.625 2°56.047 123.7 -999 212 7.4
2008-11-26 07:41:05 51°13.625 2°56.047 123.7 -999 182 7.4
2008-11-26 07:41:09 51°13.625 2°56.047 123.7 -999 312 7.4
2008-11-26 07:41:14 51°13.625 2°56.047 123.9 -999 306 7.4
2008-11-26 07:41:20 51°13.625 2°56.047 123.9 -999 259 5.5
2008-11-26 07:41:25 51°13.625 2°56.047 124 -999 17 7.4
2008-11-26 07:41:29 51°13.625 2°56.047 124 -999 53 7.4
2008-11-26 07:41:34 51°13.625 2°56.047 124 -999 14 7.4
2008-11-26 07:41:40 51°13.625 2°56.047 124 -999 197 7.4
2008-11-26 07:41:44 51°13.625 2°56.047 124 -999 208 7.4
2008-11-26 07:41:50 51°13.625 2°56.047 124 -999 214 7.4
2008-11-26 07:41:55 51°13.625 2°56.047 124 -999 88 5.5
2008-11-26 07:42:00 51°13.625 2°56.047 124.2 -999 317 7.4
2008-11-26 07:42:05 51°13.625 2°56.047 124.2 -999 110 7.4
2008-11-26 07:42:10 51°13.625 2°56.047 124.2 -999 105 7.4
2008-11-26 07:42:15 51°13.625 2°56.047 124 -999 233 7.4
2008-11-26 07:42:20 51°13.625 2°56.047 124 -999 218 5.5
2008-11-26 07:42:25 51°13.625 2°56.047 124 -999 226 7.4
2008-11-26 07:42:29 51°13.625 2°56.048 124 -999 270 7.4
2008-11-26 07:42:35 51°13.624 2°56.047 124 -999 234 7.4
2008-11-26 07:42:40 51°13.623 2°56.047 124 -999 237 7.4
2008-11-26 07:42:45 51°13.622 2°56.047 124.2 -999 237 5.5
2008-11-26 07:42:49 51°13.622 2°56.047 124.2 -999 257 7.4
2008-11-26 07:42:54 51°13.622 2°56.047 124.3 -999 224 7.5
2008-11-26 07:43:00 51°13.622 2°56.047 124.4 -999 256 7.4
2008-11-26 07:43:05 51°13.622 2°56.047 124.5 -999 272 7.4
2008-11-26 07:43:09 51°13.622 2°56.047 124.7 -999 215 5.5
2008-11-26 07:43:14 51°13.623 2°56.047 124.7 -999 230 7.4
2008-11-26 07:43:19 51°13.623 2°56.047 124.8 -999 266 5.5
2008-11-26 07:43:25 51°13.623 2°56.047 124.8 -999 265 7.4
2008-11-26 07:43:29 51°13.623 2°56.047 124.9 -999 211 7.4
2008-11-26 07:43:34 51°13.624 2°56.047 124.9 -999 62 7.4
2008-11-26 07:43:40 51°13.624 2°56.048 124.9 -999 76 7.4
2008-11-26 07:43:45 51°13.624 2°56.048 124.9 0.1 94 5.5
2008-11-26 07:43:49 51°13.624 2°56.048 124.4 0.1 84 7.4
2008-11-26 07:43:54 51°13.625 2°56.048 123.8 -999 154 7.4
2008-11-26 07:44:00 51°13.624 2°56.048 123 -999 199 7.4
2008-11-26 07:44:05 51°13.624 2°56.048 122 -999 191 7.4
2008-11-26 07:44:10 51°13.624 2°56.048 121.4 -999 200 7.4
2008-11-26 07:44:15 51°13.624 2°56.048 121.1 -999 200 7.4
2008-11-26 07:44:20 51°13.624 2°56.048 120.6 -999 196 5.5
2008-11-26 07:44:24 51°13.624 2°56.048 120.4 -999 197 7.4
2008-11-26 07:44:29 51°13.624 2°56.048 120 -999 189 7.4
2008-11-26 07:44:34 51°13.624 2°56.048 119.7 0.1 190 7.4
2008-11-26 07:44:40 51°13.624 2°56.047 119.1 0.1 193 7.4
2008-11-26 07:44:45 51°13.624 2°56.047 118.6 0.1 194 7.4
2008-11-26 07:44:49 51°13.624 2°56.047 117.5 0.1 192 7.4
2008-11-26 07:44:55 51°13.624 2°56.047 116.8 0.1 193 7.4
2008-11-26 07:45:00 51°13.623 2°56.047 115.9 0.1 192 7.4
2008-11-26 07:45:05 51°13.623 2°56.047 115.2 0.1 189 7.4
2008-11-26 07:45:09 51°13.623 2°56.047 114.3 0.1 190 7.4
2008-11-26 07:45:15 51°13.623 2°56.047 113.4 0.1 193 7.4
2008-11-26 07:45:20 51°13.622 2°56.047 112.6 0.1 192 7.4
2008-11-26 07:45:25 51°13.623 2°56.047 111.8 0.1 191 7.4
2008-11-26 07:45:29 51°13.623 2°56.047 111 0.1 197 7.4
2008-11-26 07:45:34 51°13.623 2°56.047 110.4 0.1 200 7.4
2008-11-26 07:45:40 51°13.623 2°56.047 109.5 0.1 199 7.4
2008-11-26 07:45:45 51°13.623 2°56.047 109 -999 204 7.4
2008-11-26 07:45:49 51°13.622 2°56.047 108.3 0.1 199 7.4
2008-11-26 07:45:54 51°13.623 2°56.047 108 0.1 195 7.5
2008-11-26 07:46:00 51°13.623 2°56.047 107.4 0.1 195 5.5
2008-11-26 07:46:05 51°13.623 2°56.047 106.9 0.1 210 7.4
2008-11-26 07:46:10 51°13.623 2°56.047 106.4 -999 272 7.5
2008-11-26 07:46:15 51°13.623 2°56.047 105.9 0.2 316 7.5
2008-11-26 07:46:20 51°13.624 2°56.046 105.4 0.6 296 7.4
2008-11-26 07:46:25 51°13.625 2°56.044 105.3 0.9 298 7.4
2008-11-26 07:46:30 51°13.626 2°56.041 105.5 1.3 291 7.4
2008-11-26 07:46:35 51°13.626 2°56.037 105.5 1.8 294 7.3
2008-11-26 07:46:40 51°13.627 2°56.033 105.6 2.3 289 7.4
2008-11-26 07:46:45 51°13.628 2°56.027 105.6 2.6 292 -999
2008-11-26 07:46:50 51°13.629 2°56.021 105.9 3 290 -999
2008-11-26 07:46:55 51°13.631 2°56.015 107.3 3.2 292 -999
2008-11-26 07:47:00 51°13.633 2°56.008 108.2 3.4 291 -999
2008-11-26 07:47:05 51°13.635 2°56.001 108.8 3.6 293 -999
2008-11-26 07:47:10 51°13.636 2°55.994 108.8 3.7 291 -999
2008-11-26 07:47:15 51°13.638 2°55.986 108.8 3.9 291 -999
2008-11-26 07:47:20 51°13.64 2°55.977 108.8 4 289 -999
2008-11-26 07:47:25 51°13.642 2°55.969 108.8 4.1 291 -999
2008-11-26 07:47:30 51°13.644 2°55.96 109.6 4.2 290 -999
2008-11-26 07:47:35 51°13.646 2°55.95 110.3 4.4 291 -999
2008-11-26 07:47:40 51°13.649 2°55.941 111.1 4.5 292 -999
2008-11-26 07:47:45 51°13.652 2°55.932 112 4.5 293 -999
2008-11-26 07:47:50 51°13.655 2°55.923 112.9 4.4 294 -999
2008-11-26 07:47:55 51°13.657 2°55.914 113.9 4.3 294 -999
2008-11-26 07:48:00 51°13.66 2°55.906 114.4 4.2 296 -999
2008-11-26 07:48:05 51°13.662 2°55.898 114.6 4.2 296 -999
2008-11-26 07:48:10 51°13.665 2°55.89 114.7 4.1 297 -999
2008-11-26 07:48:15 51°13.667 2°55.883 114.7 4 297 -999
2008-11-26 07:48:20 51°13.668 2°55.875 114.7 3.9 298 -999
2008-11-26 07:48:25 51°13.671 2°55.867 114.6 3.9 297 -999
2008-11-26 07:48:30 51°13.674 2°55.86 114.3 3.8 298 -999
2008-11-26 07:48:35 51°13.676 2°55.852 113.9 3.8 297 -999
2008-11-26 07:48:40 51°13.678 2°55.844 113.3 3.8 297 -999
2008-11-26 07:48:45 51°13.68 2°55.837 112.7 3.7 297 -999
2008-11-26 07:48:50 51°13.683 2°55.829 112.1 3.7 297 -999
2008-11-26 07:48:55 51°13.685 2°55.822 111.2 3.6 296 -999
2008-11-26 07:49:00 51°13.687 2°55.815 110.2 3.6 295 -999
2008-11-26 07:49:05 51°13.689 2°55.808 109 3.6 294 -999
2008-11-26 07:49:10 51°13.691 2°55.801 107.5 3.5 292 -999
2008-11-26 07:49:15 51°13.693 2°55.794 105.9 3.5 291 -999
2008-11-26 07:49:20 51°13.695 2°55.786 104.1 3.5 289 -999
2008-11-26 07:49:25 51°13.697 2°55.779 102.4 3.4 288 -999
2008-11-26 07:49:29 51°13.698 2°55.774 100.8 3.3 285 11.3
2008-11-26 07:49:35 51°13.699 2°55.765 98.7 3.1 281 12.6
2008-11-26 07:49:40 51°13.7 2°55.759 95.9 3 279 -999
2008-11-26 07:49:45 51°13.7 2°55.753 92.6 2.8 277 13.3
2008-11-26 07:49:49 51°13.7 2°55.748 90.2 2.6 275 12.7
2008-11-26 07:49:54 51°13.7 2°55.743 88.9 2.3 271 12.5
2008-11-26 07:50:00 51°13.7 2°55.737 87.2 2 270 12
2008-11-26 07:50:05 51°13.7 2°55.733 85 1.8 267 11.9
2008-11-26 07:50:09 51°13.7 2°55.73 82.7 1.7 266 12
2008-11-26 07:50:14 51°13.699 2°55.727 80.7 1.5 265 12.6
2008-11-26 07:50:20 51°13.699 2°55.723 78.9 1.3 262 12.9
2008-11-26 07:50:25 51°13.699 2°55.721 77.4 1.2 261 14
2008-11-26 07:50:29 51°13.699 2°55.719 75.6 1 258 14.2
2008-11-26 07:50:34 51°13.698 2°55.717 74.3 0.9 258 14.3
2008-11-26 07:50:40 51°13.698 2°55.715 72.6 0.7 258 14.2
2008-11-26 07:50:45 51°13.698 2°55.714 70.9 0.3 268 14.7
2008-11-26 07:50:49 51°13.698 2°55.714 68.5 0.2 49 15.3
2008-11-26 07:50:54 51°13.699 2°55.715 66.3 0.6 52 15.6
2008-11-26 07:51:00 51°13.7 2°55.717 62.3 1 53 15.5
2008-11-26 07:51:04 51°13.701 2°55.719 57.5 1.4 46 15.4
2008-11-26 07:51:09 51°13.703 2°55.721 51.7 1.7 41 15.3
2008-11-26 07:51:14 51°13.705 2°55.724 45.6 2 34 14.1
2008-11-26 07:51:20 51°13.708 2°55.727 39.1 2.2 28 12.9
2008-11-26 07:51:24 51°13.711 2°55.728 32.5 2.4 21 12.4
2008-11-26 07:51:29 51°13.714 2°55.73 24.4 2.6 14 12.5
2008-11-26 07:51:34 51°13.718 2°55.73 18.8 2.8 5 12.6
2008-11-26 07:51:40 51°13.723 2°55.73 11.9 3.2 358 12.5
2008-11-26 07:51:44 51°13.727 2°55.729 4.5 3.6 349 12.4
2008-11-26 07:51:49 51°13.733 2°55.726 355.7 4.2 341 12.3
2008-11-26 07:51:54 51°13.738 2°55.722 346.2 4.7 334 11.6
2008-11-26 07:52:00 51°13.746 2°55.715 337.4 5.3 330 11.5
2008-11-26 07:52:04 51°13.751 2°55.71 331.1 5.7 328 11.7
2008-11-26 07:52:09 51°13.758 2°55.703 328 6.1 327 11
2008-11-26 07:52:14 51°13.766 2°55.695 327.1 6.5 328 10.7
2008-11-26 07:52:20 51°13.775 2°55.686 327.2 6.8 327 10.4
2008-11-26 07:52:24 51°13.782 2°55.679 327.8 7.1 329 10.7
2008-11-26 07:52:29 51°13.791 2°55.671 328.7 7.4 328 10.6
2008-11-26 07:52:34 51°13.8 2°55.662 329 7.6 330 10.8
2008-11-26 07:52:39 51°13.809 2°55.654 329.8 7.8 330 10.7
2008-11-26 07:52:44 51°13.819 2°55.646 330.5 7.9 332 10.7
2008-11-26 07:52:49 51°13.828 2°55.637 331.3 8.1 332 10.8
2008-11-26 07:52:54 51°13.838 2°55.628 332 8.2 332 10.7
2008-11-26 07:52:59 51°13.848 2°55.62 332.3 8.3 333 10.8
2008-11-26 07:53:04 51°13.859 2°55.611 332.9 8.4 332 10.7
2008-11-26 07:53:09 51°13.869 2°55.603 332.9 8.5 333 10.7
2008-11-26 07:53:14 51°13.88 2°55.594 332.8 8.6 333 10.7
2008-11-26 07:53:19 51°13.891 2°55.586 333.5 8.6 334 10.7
2008-11-26 07:53:24 51°13.902 2°55.578 334.1 8.7 334 10.7
2008-11-26 07:53:29 51°13.913 2°55.569 333.8 8.7 333 10.7
2008-11-26 07:53:34 51°13.924 2°55.561 333 8.7 334 10.7
2008-11-26 07:53:39 51°13.935 2°55.552 333.3 8.7 334 10.8
2008-11-26 07:53:44 51°13.946 2°55.543 333.8 8.8 334 10.8
2008-11-26 07:53:49 51°13.956 2°55.535 333.5 8.8 333 10.7
2008-11-26 07:53:54 51°13.967 2°55.526 332.8 8.8 334 10.8
2008-11-26 07:53:59 51°13.978 2°55.518 333.1 8.8 334 10.8
2008-11-26 07:54:04 51°13.989 2°55.509 333.6 8.8 334 10.7
2008-11-26 07:54:09 51°14 2°55.501 333.7 8.8 334 10.6
2008-11-26 07:54:14 51°14.011 2°55.492 333.8 8.8 335 10.5
2008-11-26 07:54:19 51°14.022 2°55.484 334.1 8.8 335 10.6
2008-11-26 07:54:24 51°14.033 2°55.477 334.9 8.8 336 9.9
2008-11-26 07:54:29 51°14.044 2°55.468 335.6 8.8 334 10.5
2008-11-26 07:54:34 51°14.055 2°55.46 335.2 8.8 336 10.7
2008-11-26 07:54:39 51°14.066 2°55.452 335.3 8.8 335 10.8
2008-11-26 07:54:44 51°14.078 2°55.444 335.5 8.9 335 10.8
2008-11-26 07:54:49 51°14.089 2°55.435 335.1 8.9 334 10.7
2008-11-26 07:54:54 51°14.1 2°55.427 334.4 8.9 334 10.8
2008-11-26 07:54:59 51°14.111 2°55.418 333.9 8.8 333 10.7
2008-11-26 07:55:04 51°14.122 2°55.409 333.7 8.8 333 10.8
2008-11-26 07:55:09 51°14.132 2°55.399 333 8.8 332 10.9
2008-11-26 07:55:14 51°14.143 2°55.391 332.7 8.8 333 10.9
2008-11-26 07:55:20 51°14.156 2°55.38 333 8.8 331 10.9
2008-11-26 07:55:25 51°14.167 2°55.37 332.4 8.8 330 10.9
2008-11-26 07:55:29 51°14.175 2°55.362 331.6 8.9 329 10.9
2008-11-26 07:55:34 51°14.186 2°55.352 330.8 8.9 328 10.9
2008-11-26 07:55:39 51°14.196 2°55.341 329.2 8.9 326 10.9
2008-11-26 07:55:44 51°14.206 2°55.329 327.9 9 324 11
2008-11-26 07:55:49 51°14.216 2°55.317 325.3 8.9 323 11.1
2008-11-26 07:55:53 51°14.224 2°55.308 323.9 9 322 11.1
2008-11-26 07:55:58 51°14.234 2°55.295 322.6 9.1 321 11.1
2008-11-26 07:56:03 51°14.243 2°55.282 321.6 9.1 319 11
2008-11-26 07:56:08 51°14.252 2°55.268 319.1 9.2 316 11.3
2008-11-26 07:56:13 51°14.261 2°55.253 316.4 9.4 315 10.9
2008-11-26 07:56:18 51°14.271 2°55.238 315.1 9.5 314 10.7
2008-11-26 07:56:23 51°14.28 2°55.223 314 9.7 314 10.7
2008-11-26 07:56:28 51°14.29 2°55.207 313.2 9.8 315 10.8
2008-11-26 07:56:32 51°14.297 2°55.194 313.5 10 314 10.7
2008-11-26 07:56:37 51°14.307 2°55.178 313.3 10.2 313 10.5
2008-11-26 07:56:42 51°14.317 2°55.161 312.7 10.3 312 10.5
2008-11-26 07:56:47 51°14.326 2°55.144 311.5 10.3 313 10.7
2008-11-26 07:56:52 51°14.336 2°55.128 311.9 10.2 314 10.7
2008-11-26 07:56:57 51°14.346 2°55.112 313.4 10.2 315 10.8
2008-11-26 07:57:01 51°14.354 2°55.099 314.1 10.2 315 10.8
2008-11-26 07:57:07 51°14.366 2°55.08 314.2 10.2 315 10.7
2008-11-26 07:57:11 51°14.374 2°55.067 313.9 10.2 314 10.7
2008-11-26 07:57:16 51°14.384 2°55.051 314.2 10.3 316 10.5
2008-11-26 07:57:21 51°14.394 2°55.035 315.4 10.4 315 10.3
2008-11-26 07:57:26 51°14.404 2°55.019 315.6 10.4 315 10.3
2008-11-26 07:57:31 51°14.415 2°55.002 315.4 10.5 315 10.5
2008-11-26 07:57:36 51°14.425 2°54.986 315.6 10.5 315 10.4
2008-11-26 07:57:41 51°14.435 2°54.969 316.1 10.6 315 10.5
2008-11-26 07:57:45 51°14.444 2°54.956 316.4 10.7 315 10.5
2008-11-26 07:57:51 51°14.456 2°54.936 316.6 10.8 316 10.6
2008-11-26 07:57:56 51°14.467 2°54.92 317.1 10.9 317 10.5
2008-11-26 07:58:01 51°14.479 2°54.904 319.1 11 319 10.3
2008-11-26 07:58:06 51°14.491 2°54.888 321.4 11.1 320 10.3
2008-11-26 07:58:11 51°14.503 2°54.873 322 11.2 321 10.5
2008-11-26 07:58:16 51°14.515 2°54.858 323 11.2 322 10.1
2008-11-26 07:58:21 51°14.527 2°54.843 324.3 11.1 323 9.9
2008-11-26 07:58:26 51°14.54 2°54.828 325 11.1 323 9.9
2008-11-26 07:58:31 51°14.552 2°54.813 324.8 11.3 323 10
2008-11-26 07:58:36 51°14.565 2°54.799 325.4 11.3 326 10.1
2008-11-26 07:58:41 51°14.579 2°54.786 327.7 11.2 328 9.8
2008-11-26 07:58:45 51°14.589 2°54.776 331.3 11.1 331 9.5
2008-11-26 07:58:51 51°14.606 2°54.763 334.2 11.1 333 9.8
2008-11-26 07:58:56 51°14.619 2°54.751 335.4 11.2 332 9.7
2008-11-26 07:59:01 51°14.633 2°54.739 335.2 11.4 332 9.7
2008-11-26 07:59:05 51°14.644 2°54.729 334.3 11.5 332 9.7
2008-11-26 07:59:11 51°14.661 2°54.715 334.5 11.6 332 9.7
2008-11-26 07:59:16 51°14.676 2°54.703 334.9 11.7 333 9.7
2008-11-26 07:59:21 51°14.69 2°54.691 335.2 11.7 333 9.7
2008-11-26 07:59:26 51°14.704 2°54.68 335.2 11.6 332 9.7
2008-11-26 07:59:31 51°14.719 2°54.668 335.1 11.7 332 9.7
2008-11-26 07:59:36 51°14.733 2°54.655 334.8 11.8 332 9.6
2008-11-26 07:59:41 51°14.748 2°54.642 334.4 11.9 331 9.8
2008-11-26 07:59:46 51°14.762 2°54.63 334.4 11.8 331 9.7
2008-11-26 07:59:51 51°14.776 2°54.617 334.2 11.7 331 9.5
2008-11-26 07:59:56 51°14.79 2°54.605 333.8 11.8 331 9.4
2008-11-26 08:00:01 51°14.805 2°54.592 333.8 11.8 331 9.4
2008-11-26 08:00:06 51°14.819 2°54.579 333.8 11.9 331 9.6
2008-11-26 08:00:11 51°14.833 2°54.567 333.8 11.9 332 9.7
2008-11-26 08:00:16 51°14.848 2°54.555 333.8 11.8 332 9.5
2008-11-26 08:00:21 51°14.862 2°54.542 334.2 11.8 332 9.9
2008-11-26 08:00:26 51°14.876 2°54.53 333.9 11.7 331 9.4
2008-11-26 08:00:31 51°14.891 2°54.517 333.9 11.8 331 9.5
2008-11-26 08:00:36 51°14.905 2°54.504 334.1 11.9 330 9.6
2008-11-26 08:00:41 51°14.919 2°54.491 333.7 11.8 330 9.7
2008-11-26 08:00:45 51°14.931 2°54.481 333.4 11.8 329 9.6
2008-11-26 08:00:51 51°14.947 2°54.464 332.7 11.7 327 9.6
2008-11-26 08:00:56 51°14.961 2°54.45 332 11.7 328 9.3
2008-11-26 08:01:01 51°14.975 2°54.436 332 11.8 327 9.6
2008-11-26 08:01:06 51°14.988 2°54.423 332.2 11.7 328 9.3
2008-11-26 08:01:11 51°15.002 2°54.409 332.9 11.6 328 9.2
2008-11-26 08:01:16 51°15.016 2°54.396 333.2 11.6 329 9.7
2008-11-26 08:01:21 51°15.03 2°54.383 333.3 11.6 328 9.6
2008-11-26 08:01:26 51°15.044 2°54.37 333.4 11.6 329 9.4
2008-11-26 08:01:31 51°15.057 2°54.356 333.3 11.7 328 9.5
2008-11-26 08:01:36 51°15.071 2°54.342 331.8 11.6 327 9.8
2008-11-26 08:01:41 51°15.084 2°54.328 331.6 11.6 327 10.2
2008-11-26 08:01:46 51°15.098 2°54.314 330.9 11.7 326 10.1
2008-11-26 08:01:51 51°15.111 2°54.299 330.2 11.7 325 9.8
2008-11-26 08:01:56 51°15.125 2°54.284 329.6 11.6 325 10.5
2008-11-26 08:02:01 51°15.138 2°54.269 329.1 11.6 324 10.1
2008-11-26 08:02:06 51°15.151 2°54.255 329 11.7 325 10.4
2008-11-26 08:02:11 51°15.164 2°54.24 329.9 11.7 326 10.5
2008-11-26 08:02:16 51°15.178 2°54.226 330.7 11.6 327 10.7
2008-11-26 08:02:21 51°15.191 2°54.212 331.2 11.6 327 10.4
2008-11-26 08:02:26 51°15.205 2°54.198 331.5 11.7 327 10.6
2008-11-26 08:02:31 51°15.219 2°54.184 331.2 11.7 327 10.6
2008-11-26 08:02:36 51°15.232 2°54.17 331 11.7 326 10.5
2008-11-26 08:02:41 51°15.245 2°54.155 330.2 11.5 326 10.6
2008-11-26 08:02:46 51°15.259 2°54.141 330.1 11.6 327 11
2008-11-26 08:02:51 51°15.272 2°54.127 330.4 11.6 327 11
2008-11-26 08:02:56 51°15.286 2°54.113 330.6 11.6 327 10.8
2008-11-26 08:03:01 51°15.299 2°54.099 330.6 11.6 327 10.6
2008-11-26 08:03:06 51°15.313 2°54.086 330.9 11.6 328 10.9
2008-11-26 08:03:11 51°15.326 2°54.071 330.6 11.7 327 11.3
2008-11-26 08:03:16 51°15.34 2°54.057 330.1 11.6 326 11.4
2008-11-26 08:03:21 51°15.353 2°54.042 329.8 11.6 327 11.2
2008-11-26 08:03:26 51°15.367 2°54.029 330.4 11.7 328 11.4
2008-11-26 08:03:31 51°15.381 2°54.015 331.4 11.6 327 11.4
2008-11-26 08:03:36 51°15.395 2°54.001 331.4 11.7 327 11.5
2008-11-26 08:03:41 51°15.408 2°53.986 330.7 11.7 327 11.3
2008-11-26 08:03:45 51°15.419 2°53.975 330.6 11.7 327 11.4
2008-11-26 08:03:51 51°15.435 2°53.958 330.6 11.7 327 11.4
2008-11-26 08:03:56 51°15.449 2°53.944 330.6 11.8 326 11.4
2008-11-26 08:04:01 51°15.462 2°53.93 330.3 11.6 326 11.3
2008-11-26 08:04:05 51°15.474 2°53.918 330.1 11.8 326 11.4
2008-11-26 08:04:11 51°15.49 2°53.901 330.1 11.7 327 11.4
2008-11-26 08:04:16 51°15.503 2°53.886 330.6 11.8 326 11.5
2008-11-26 08:04:21 51°15.517 2°53.872 330.7 11.8 326 11.4
2008-11-26 08:04:26 51°15.531 2°53.857 330.6 11.7 327 11.3
2008-11-26 08:04:31 51°15.544 2°53.843 330.9 11.7 326 11.4
2008-11-26 08:04:36 51°15.558 2°53.828 330.9 11.8 325 11.4
2008-11-26 08:04:41 51°15.571 2°53.813 330.6 11.8 326 11.6
2008-11-26 08:04:46 51°15.585 2°53.799 331.2 11.8 327 11.2
2008-11-26 08:04:51 51°15.599 2°53.785 332.3 11.7 327 11.3
2008-11-26 08:04:56 51°15.612 2°53.771 332.7 11.8 327 11.5
2008-11-26 08:05:01 51°15.626 2°53.757 333.1 11.7 328 11.5
2008-11-26 08:05:06 51°15.639 2°53.744 333.8 11.7 327 11.2
2008-11-26 08:05:11 51°15.653 2°53.73 333.7 11.5 328 11.5
2008-11-26 08:05:16 51°15.666 2°53.716 333.8 11.6 328 11.5
2008-11-26 08:05:21 51°15.68 2°53.702 334 11.6 327 11.5
2008-11-26 08:05:26 51°15.693 2°53.688 334 11.6 328 11.3
2008-11-26 08:05:31 51°15.707 2°53.674 333.8 11.6 327 11.1
2008-11-26 08:05:36 51°15.72 2°53.661 333.5 11.6 327 11.2
2008-11-26 08:05:41 51°15.734 2°53.647 333.7 11.6 327 11
2008-11-26 08:05:46 51°15.747 2°53.633 333.9 11.5 328 11.2
2008-11-26 08:05:51 51°15.761 2°53.619 334.1 11.5 328 11
2008-11-26 08:05:56 51°15.774 2°53.606 334.1 11.7 328 11.3
2008-11-26 08:06:01 51°15.788 2°53.592 333.8 11.7 328 11.2
2008-11-26 08:06:06 51°15.801 2°53.578 333 11.7 326 11.1
2008-11-26 08:06:11 51°15.815 2°53.564 333 11.6 328 11.1
2008-11-26 08:06:16 51°15.829 2°53.55 333.3 11.8 328 11.5
2008-11-26 08:06:21 51°15.843 2°53.537 333.7 11.7 329 11.2
2008-11-26 08:06:26 51°15.857 2°53.524 334.2 11.6 330 11
2008-11-26 08:06:31 51°15.871 2°53.511 334.5 11.6 330 11
2008-11-26 08:06:36 51°15.885 2°53.499 334.2 11.7 331 11.2
2008-11-26 08:06:41 51°15.899 2°53.487 334.6 11.7 332 11.6
2008-11-26 08:06:46 51°15.913 2°53.474 334.8 11.7 331 11.4
2008-11-26 08:06:51 51°15.927 2°53.461 334.2 11.7 330 11.4
2008-11-26 08:06:56 51°15.941 2°53.448 333.8 11.7 330 11.4
2008-11-26 08:07:01 51°15.956 2°53.435 333.4 11.8 330 11.5
2008-11-26 08:07:06 51°15.969 2°53.422 332.8 11.8 329 11.3
2008-11-26 08:07:11 51°15.983 2°53.409 332.7 11.5 329 11.3
2008-11-26 08:07:16 51°15.997 2°53.396 332.9 11.6 329 11.2
2008-11-26 08:07:21 51°16.011 2°53.382 332.8 11.5 329 11.5
2008-11-26 08:07:26 51°16.025 2°53.369 332.8 11.6 329 11.4
2008-11-26 08:07:31 51°16.038 2°53.357 333.2 11.5 330 11.4
2008-11-26 08:07:36 51°16.052 2°53.344 333.6 11.6 330 11.7
2008-11-26 08:07:41 51°16.066 2°53.331 333.5 11.6 330 11.6
2008-11-26 08:07:46 51°16.08 2°53.318 333.5 11.6 330 11.6
2008-11-26 08:07:51 51°16.094 2°53.304 333 11.4 330 11.5
2008-11-26 08:07:56 51°16.108 2°53.292 333.1 11.5 329 11.4
2008-11-26 08:08:01 51°16.122 2°53.279 332.6 11.5 329 11.7
2008-11-26 08:08:06 51°16.136 2°53.266 332.7 11.5 330 11.7
2008-11-26 08:08:11 51°16.149 2°53.253 333 11.5 330 11.6
2008-11-26 08:08:16 51°16.163 2°53.24 333.1 11.6 330 11.7
2008-11-26 08:08:21 51°16.177 2°53.227 333.2 11.7 330 11.9
2008-11-26 08:08:26 51°16.191 2°53.214 333 11.5 330 11.6
2008-11-26 08:08:31 51°16.205 2°53.202 333 11.5 331 11.8
2008-11-26 08:08:36 51°16.219 2°53.189 333.3 11.5 330 11.7
2008-11-26 08:08:41 51°16.233 2°53.177 333.6 11.5 331 11.6
2008-11-26 08:08:46 51°16.246 2°53.164 333.1 11.5 329 11.6
2008-11-26 08:08:51 51°16.26 2°53.151 333.1 11.5 330 12
2008-11-26 08:08:56 51°16.274 2°53.139 332.8 11.5 329 11.6
2008-11-26 08:09:01 51°16.288 2°53.126 332.5 11.4 330 12
2008-11-26 08:09:06 51°16.302 2°53.114 333 11.5 330 11.9
2008-11-26 08:09:11 51°16.315 2°53.101 332.6 11.4 330 11.6
2008-11-26 08:09:16 51°16.329 2°53.088 332.7 11.3 330 11.6
2008-11-26 08:09:21 51°16.343 2°53.076 332.8 11.3 330 11.7
2008-11-26 08:09:26 51°16.356 2°53.064 332.7 11.5 330 12
2008-11-26 08:09:31 51°16.37 2°53.051 332.3 11.6 331 12
2008-11-26 08:09:36 51°16.384 2°53.038 332.6 11.5 330 11.9
2008-11-26 08:09:41 51°16.398 2°53.026 332.7 11.5 330 12.1
2008-11-26 08:09:46 51°16.411 2°53.013 332.2 11.5 330 11.7
2008-11-26 08:09:51 51°16.425 2°53.001 332.4 11.4 330 11.5
2008-11-26 08:09:56 51°16.439 2°52.988 332.6 11.5 331 11.7
2008-11-26 08:10:01 51°16.453 2°52.976 333.1 11.5 331 11.7
2008-11-26 08:10:05 51°16.464 2°52.967 334.1 11.6 332 11.9
2008-11-26 08:10:11 51°16.482 2°52.952 334.1 11.6 332 11.9
2008-11-26 08:10:16 51°16.496 2°52.94 334.5 11.5 332 11.8
2008-11-26 08:10:21 51°16.51 2°52.928 334.5 11.6 332 11.8
2008-11-26 08:10:25 51°16.521 2°52.918 334.5 11.6 332 11.9
2008-11-26 08:10:31 51°16.539 2°52.904 334.8 11.6 332 11.9
2008-11-26 08:10:36 51°16.553 2°52.892 335.2 11.7 332 11.8
2008-11-26 08:10:41 51°16.567 2°52.88 335.1 11.6 332 11.7
2008-11-26 08:10:46 51°16.581 2°52.868 335 11.6 333 11.9
2008-11-26 08:10:51 51°16.596 2°52.856 334.9 11.7 333 11.7
2008-11-26 08:10:56 51°16.61 2°52.845 335.3 11.7 333 11.5
2008-11-26 08:11:01 51°16.625 2°52.833 335.8 11.7 334 11.6
2008-11-26 08:11:06 51°16.639 2°52.822 336 11.6 334 11.4
2008-11-26 08:11:11 51°16.654 2°52.811 336.8 11.6 335 11.6
2008-11-26 08:11:16 51°16.668 2°52.801 337.9 11.6 336 11.3
2008-11-26 08:11:21 51°16.683 2°52.791 338.1 11.7 336 11.3
2008-11-26 08:11:26 51°16.698 2°52.781 338.3 11.6 337 11.2
2008-11-26 08:11:31 51°16.712 2°52.77 338.6 11.3 336 10.7
2008-11-26 08:11:36 51°16.725 2°52.759 337.9 11.3 334 10.1
2008-11-26 08:11:41 51°16.74 2°52.748 337.4 11.3 334 10.1
2008-11-26 08:11:46 51°16.754 2°52.737 337.6 11.3 334 10
2008-11-26 08:11:51 51°16.768 2°52.726 337.3 11.4 332 10
2008-11-26 08:11:56 51°16.782 2°52.715 336.9 11.2 333 9.7
2008-11-26 08:12:01 51°16.796 2°52.703 336.5 11.2 332 9.6
2008-11-26 08:12:06 51°16.809 2°52.692 335.8 11.1 332 9.6
2008-11-26 08:12:11 51°16.823 2°52.68 335.9 11.3 331 9.8
2008-11-26 08:12:16 51°16.837 2°52.668 335.8 11.2 331 9.7
2008-11-26 08:12:21 51°16.85 2°52.655 335.2 11.1 330 9.6
2008-11-26 08:12:26 51°16.864 2°52.644 335.9 11.1 333 9.6
2008-11-26 08:12:31 51°16.877 2°52.633 336.2 11.1 332 9.7
2008-11-26 08:12:36 51°16.891 2°52.622 336.8 11.1 333 9.7
2008-11-26 08:12:41 51°16.905 2°52.609 336.1 11.2 330 9.8
2008-11-26 08:12:46 51°16.919 2°52.598 336.2 11.2 333 10.1
2008-11-26 08:12:51 51°16.932 2°52.586 336.5 11.3 331 10.1
2008-11-26 08:12:56 51°16.946 2°52.574 336.4 11.3 332 10.4
2008-11-26 08:13:01 51°16.959 2°52.562 336.5 11.2 331 10.2
2008-11-26 08:13:06 51°16.973 2°52.551 336.8 11 332 9.7
2008-11-26 08:13:11 51°16.986 2°52.539 336.8 11 331 9.7
2008-11-26 08:13:16 51°16.999 2°52.527 336.7 10.9 331 9.4
2008-11-26 08:13:21 51°17.013 2°52.516 336.7 10.8 331 9.8
2008-11-26 08:13:26 51°17.026 2°52.503 336.3 10.9 330 10
2008-11-26 08:13:31 51°17.039 2°52.493 336.7 10.7 332 9.7
2008-11-26 08:13:36 51°17.052 2°52.481 337.3 10.8 332 9.6
2008-11-26 08:13:41 51°17.065 2°52.471 338.5 10.7 334 9.8
2008-11-26 08:13:46 51°17.079 2°52.46 338.9 10.9 332 9.8
2008-11-26 08:13:51 51°17.092 2°52.449 339.1 10.9 335 10
2008-11-26 08:13:56 51°17.106 2°52.439 339.4 10.9 333 10.3
2008-11-26 08:14:01 51°17.12 2°52.428 339.7 10.9 335 10.1
2008-11-26 08:14:06 51°17.133 2°52.418 339.4 11 334 10.1
2008-11-26 08:14:11 51°17.147 2°52.407 339.4 10.9 334 10.1
2008-11-26 08:14:16 51°17.16 2°52.397 339.6 10.9 334 9.9
2008-11-26 08:14:21 51°17.174 2°52.386 339.4 10.8 333 10.2
2008-11-26 08:14:26 51°17.187 2°52.375 338.5 10.9 333 10.2
2008-11-26 08:14:31 51°17.201 2°52.364 338.6 10.9 333 10
2008-11-26 08:14:36 51°17.214 2°52.353 338 11 332 10.4
2008-11-26 08:14:41 51°17.228 2°52.342 337.7 11 333 10.5
2008-11-26 08:14:46 51°17.241 2°52.33 337.2 11.1 332 10.6
2008-11-26 08:14:51 51°17.255 2°52.321 339.1 11 336 10.5
2008-11-26 08:14:56 51°17.269 2°52.31 339.7 10.9 335 10.4
2008-11-26 08:15:01 51°17.283 2°52.301 341.3 10.8 338 10.3
2008-11-26 08:15:06 51°17.297 2°52.291 341.1 11 336 10.6
2008-11-26 08:15:11 51°17.311 2°52.283 343 10.8 342 10.5
2008-11-26 08:15:16 51°17.325 2°52.275 345 11 340 10.5
2008-11-26 08:15:21 51°17.34 2°52.268 346.1 10.9 343 10.6
2008-11-26 08:15:26 51°17.354 2°52.261 347.6 10.9 343 10.7
2008-11-26 08:15:31 51°17.369 2°52.255 348.3 10.9 345 10.5
2008-11-26 08:15:36 51°17.383 2°52.249 349.7 11 346 10.6
2008-11-26 08:15:41 51°17.398 2°52.243 351 10.9 347 10.8
2008-11-26 08:15:45 51°17.41 2°52.24 352.6 10.9 349 10.5
2008-11-26 08:15:51 51°17.428 2°52.234 352.9 10.8 349 10.3
2008-11-26 08:15:56 51°17.443 2°52.23 353.6 10.8 350 10.8
2008-11-26 08:16:01 51°17.458 2°52.227 354.8 10.8 352 10.5
2008-11-26 08:16:05 51°17.47 2°52.224 354.9 10.8 350 10.8
2008-11-26 08:16:11 51°17.488 2°52.219 354.4 10.8 351 10.4
2008-11-26 08:16:16 51°17.503 2°52.215 355.2 10.9 351 10.4
2008-11-26 08:16:21 51°17.517 2°52.211 355.3 10.9 351 10.7
2008-11-26 08:16:26 51°17.533 2°52.207 355 10.9 351 10.7
2008-11-26 08:16:31 51°17.547 2°52.203 355.3 10.9 351 10.5
2008-11-26 08:16:36 51°17.562 2°52.201 356.7 10.9 354 10.5
2008-11-26 08:16:41 51°17.577 2°52.197 357.1 10.9 352 10.5
2008-11-26 08:16:46 51°17.593 2°52.196 357.9 10.9 356 10.6
2008-11-26 08:16:51 51°17.608 2°52.193 358.5 11 355 10.5
2008-11-26 08:16:56 51°17.623 2°52.192 359 11 355 10.7
2008-11-26 08:17:01 51°17.638 2°52.189 358.5 10.9 353 10.6
2008-11-26 08:17:06 51°17.653 2°52.186 358.1 10.9 354 10.7
2008-11-26 08:17:11 51°17.668 2°52.184 358.1 11 353 10.5
2008-11-26 08:17:16 51°17.683 2°52.18 356.8 11 353 10.4
2008-11-26 08:17:21 51°17.699 2°52.177 356.9 11 353 10.4
2008-11-26 08:17:26 51°17.714 2°52.173 356.6 11 351 10.6
2008-11-26 08:17:31 51°17.729 2°52.171 356.8 10.9 354 10.4
2008-11-26 08:17:36 51°17.744 2°52.168 357.6 10.8 353 10.2
2008-11-26 08:17:41 51°17.759 2°52.166 358.3 10.7 355 10.4
2008-11-26 08:17:46 51°17.773 2°52.164 359.1 10.7 355 10.3
2008-11-26 08:17:51 51°17.789 2°52.161 359 10.8 354 10.6
2008-11-26 08:17:56 51°17.803 2°52.159 357.7 10.8 354 10.4
2008-11-26 08:18:01 51°17.818 2°52.156 357.6 10.8 353 10.5
2008-11-26 08:18:06 51°17.833 2°52.152 356.9 10.9 350 10.5
2008-11-26 08:18:11 51°17.848 2°52.149 357.1 10.7 354 10.6
2008-11-26 08:18:16 51°17.863 2°52.146 357.5 10.9 353 10.4
2008-11-26 08:18:21 51°17.878 2°52.143 358 10.7 353 10.5
2008-11-26 08:18:26 51°17.893 2°52.141 359 10.8 354 10.5
2008-11-26 08:18:31 51°17.908 2°52.138 358.4 10.7 353 10.4
2008-11-26 08:18:36 51°17.922 2°52.135 358.1 10.8 353 10.5
2008-11-26 08:18:41 51°17.937 2°52.132 358 10.6 352 10.2
2008-11-26 08:18:46 51°17.952 2°52.129 358 10.6 352 10.6
2008-11-26 08:18:51 51°17.967 2°52.125 357 10.7 350 10.4
2008-11-26 08:18:56 51°17.982 2°52.121 356.4 10.7 351 10.5
2008-11-26 08:19:01 51°17.996 2°52.117 356.1 10.7 352 10.6
2008-11-26 08:19:06 51°18.011 2°52.113 356.3 10.9 351 10.8
2008-11-26 08:19:11 51°18.026 2°52.11 356.5 10.8 353 10.9
2008-11-26 08:19:16 51°18.041 2°52.107 357.4 10.6 353 10.6
2008-11-26 08:19:21 51°18.055 2°52.105 358.1 10.4 354 10.7
2008-11-26 08:19:26 51°18.07 2°52.102 358.4 10.5 353 10.8
2008-11-26 08:19:31 51°18.085 2°52.1 359.2 10.7 354 10.8
2008-11-26 08:19:36 51°18.099 2°52.098 359.3 10.5 356 10.7
2008-11-26 08:19:41 51°18.114 2°52.096 0.2 10.6 356 10.7
2008-11-26 08:19:46 51°18.129 2°52.093 -999 10.7 354 10.9
2008-11-26 08:19:51 51°18.144 2°52.092 0.6 10.8 356 11.4
2008-11-26 08:19:56 51°18.159 2°52.089 359.8 10.6 354 10.8
2008-11-26 08:20:01 51°18.173 2°52.087 359.5 10.6 355 11.1
2008-11-26 08:20:06 51°18.188 2°52.084 358.9 10.8 352 11.2
2008-11-26 08:20:11 51°18.203 2°52.081 358.5 10.7 354 11.4
2008-11-26 08:20:16 51°18.218 2°52.079 359.2 10.7 355 11.1
2008-11-26 08:20:21 51°18.232 2°52.075 358.2 10.7 351 10.9
2008-11-26 08:20:26 51°18.247 2°52.074 358.6 10.5 356 10.7
2008-11-26 08:20:31 51°18.262 2°52.07 358.5 10.5 352 10.8
2008-11-26 08:20:36 51°18.276 2°52.069 359.2 10.6 356 11
2008-11-26 08:20:41 51°18.291 2°52.066 359.3 10.8 353 11.1
2008-11-26 08:20:46 51°18.306 2°52.065 359.1 10.6 357 10.9
2008-11-26 08:20:51 51°18.321 2°52.063 359.9 10.7 355 11.2
2008-11-26 08:20:56 51°18.336 2°52.061 359.7 10.8 356 11.4
2008-11-26 08:21:01 51°18.351 2°52.059 359.5 10.9 355 11.3
2008-11-26 08:21:06 51°18.367 2°52.057 359.1 10.9 354 11.3
2008-11-26 08:21:11 51°18.382 2°52.054 358 10.9 355 11.3
2008-11-26 08:21:16 51°18.397 2°52.052 357.9 10.9 354 11.8
2008-11-26 08:21:21 51°18.412 2°52.049 357.9 11.1 355 11.9
2008-11-26 08:21:26 51°18.428 2°52.046 357.7 11.1 353 11.9
2008-11-26 08:21:31 51°18.443 2°52.043 357.5 10.8 354 12.2
2008-11-26 08:21:36 51°18.458 2°52.04 357.1 10.8 353 11.5
2008-11-26 08:21:41 51°18.472 2°52.037 357 10.8 354 11.7
2008-11-26 08:21:45 51°18.485 2°52.035 357.5 10.9 353 11.9
2008-11-26 08:21:51 51°18.503 2°52.031 357.1 10.9 353 12
2008-11-26 08:21:56 51°18.518 2°52.029 357.4 11 352 11.9
2008-11-26 08:22:01 51°18.533 2°52.024 356.1 10.9 350 11.8
2008-11-26 08:22:05 51°18.546 2°52.022 356.2 10.8 354 11.9
2008-11-26 08:22:11 51°18.563 2°52.018 356.2 10.9 350 11.9
2008-11-26 08:22:16 51°18.578 2°52.016 356.1 10.8 354 12.6
2008-11-26 08:22:21 51°18.593 2°52.012 356.5 10.9 352 12.5
2008-11-26 08:22:26 51°18.608 2°52.008 355.7 11 351 12.8
2008-11-26 08:22:31 51°18.623 2°52.005 355.6 10.9 352 12.8
2008-11-26 08:22:36 51°18.638 2°52.001 355.5 10.9 351 12.9
2008-11-26 08:22:41 51°18.653 2°51.998 355.5 11 353 12.9
2008-11-26 08:22:46 51°18.668 2°51.995 356.7 11 354 12.9
2008-11-26 08:22:51 51°18.684 2°51.992 356.9 11 352 13
2008-11-26 08:22:56 51°18.699 2°51.989 356.7 11 353 13.2
2008-11-26 08:23:01 51°18.714 2°51.987 357 11.1 353 13.3
2008-11-26 08:23:06 51°18.729 2°51.983 356.2 11.1 352 13.2
2008-11-26 08:23:11 51°18.744 2°51.98 355.8 11 353 13.2
2008-11-26 08:23:16 51°18.76 2°51.976 355.9 11.1 350 13.5
2008-11-26 08:23:21 51°18.775 2°51.972 355 11.1 352 13.5
2008-11-26 08:23:26 51°18.79 2°51.969 355.6 11.1 353 13.6
2008-11-26 08:23:31 51°18.805 2°51.966 356.4 11.1 353 13.6
2008-11-26 08:23:36 51°18.82 2°51.964 356.9 11 354 13.5
2008-11-26 08:23:41 51°18.836 2°51.961 356.9 11 353 13.5
2008-11-26 08:23:46 51°18.851 2°51.958 356.9 11 353 13.6
2008-11-26 08:23:51 51°18.867 2°51.956 356.9 11.1 353 13.8
2008-11-26 08:23:56 51°18.882 2°51.953 356.9 11.1 355 13.8
2008-11-26 08:24:01 51°18.897 2°51.95 356.7 11.1 353 13.8
2008-11-26 08:24:06 51°18.913 2°51.948 357 11.2 354 14
2008-11-26 08:24:11 51°18.928 2°51.945 357.2 11.3 354 14.2
2008-11-26 08:24:16 51°18.943 2°51.942 356.3 11 354 14
2008-11-26 08:24:21 51°18.959 2°51.939 357 11.1 353 14.2
2008-11-26 08:24:26 51°18.974 2°51.935 356.4 11.2 351 14.5
2008-11-26 08:24:31 51°18.989 2°51.933 356 11.2 354 14.6
2008-11-26 08:24:36 51°19.005 2°51.93 356.4 11.2 354 14.6
2008-11-26 08:24:41 51°19.02 2°51.927 356.7 11.2 352 14.8
2008-11-26 08:24:46 51°19.035 2°51.923 355.8 11.2 351 14.9
2008-11-26 08:24:51 51°19.051 2°51.919 355.3 11.1 351 14.7
2008-11-26 08:24:56 51°19.066 2°51.914 354.8 11.1 349 14.9
2008-11-26 08:25:01 51°19.082 2°51.909 354.3 11.2 350 15
2008-11-26 08:25:06 51°19.097 2°51.905 353.9 11.2 350 15.1
2008-11-26 08:25:11 51°19.112 2°51.901 354.5 11.1 351 14.9
2008-11-26 08:25:16 51°19.127 2°51.897 355.5 11.1 351 14.8
2008-11-26 08:25:21 51°19.143 2°51.894 356.3 11.1 352 14.6
2008-11-26 08:25:26 51°19.158 2°51.891 356.8 11.2 351 14.8
2008-11-26 08:25:31 51°19.173 2°51.888 356.5 11.2 353 15.2
2008-11-26 08:25:36 51°19.188 2°51.884 357.4 11 352 15.3
2008-11-26 08:25:41 51°19.203 2°51.881 357.1 11 352 15.3
2008-11-26 08:25:46 51°19.218 2°51.878 357.3 11.1 352 15.6
2008-11-26 08:25:51 51°19.233 2°51.874 357 11 352 15.5
2008-11-26 08:25:56 51°19.248 2°51.871 357 11 352 15.6